Portada
METAR-TAF:

METAR-TAF

Aeroports :

Zahedan, Iran

latitud: 29-28N, longitud: 060-53E, altitud: 1370 m

Observació

L'informe es va fer fa 22 minuts, a les 13:00 UTC
Vent 12 kt del Est/Nord-Est
Temperatura 34°C
Humitat 9%
Pressió 1012 hPa
Visibilitat: 7000 m

METAR: OIZH 031300Z 06012KT 7000 NSC 34/M03 Q1011 A2987 TEMPO 5000 SA

Hora: 17:52 (13:22 UTC)

Pronòstic

L'informe es va fer fa 2 hores i 22 minuts, a les 11:00 UTC
Pronòstic vàlid del 03 a les 12 UTC al 04 a les 18 UTC
Vent 8 kt del Nord
Visibilitat: 7000 m
Temporalment
l' 03 a les 12 UTC al 03 a les 15 UTC
Vent 12 kt del Nord amb ràfegues de 22 kt
Visibilitat: 3000 m
sorra

TAF: OIZH 031100Z 0312/0418 01008KT 7000 NSC TEMPO 0312/0315 35012G22KT 3000 SA

Observacions i pronòstics meteorològics de més de 4000 aeroports (METAR i TAF).

Les estacions disponibles són els punts grocs i vermells al mapa.

Posi el ratolí al punt desitjat per veure el nom de l'estació.

Feu clic per veure les observacions i els pronòstics meteorològics.

Per canviar el mapa: feu clic els botons verds amb una creu de color negre per apropar; al botó verd amb un guió per allunyar la imatge; o en les fletxes verdes per a mapes adjacents.


METAR-TAF: